sensor_id;sensor_type;location;lat;lon;timestamp;temperature;humidity
27540;DHT22;15906;52.046;4.724;2023-07-08T00:00:50;19.80;99.90
27540;DHT22;15906;52.046;4.724;2023-07-08T00:03:17;19.80;99.90
27540;DHT22;15906;52.046;4.724;2023-07-08T00:05:44;19.70;99.90
27540;DHT22;15906;52.046;4.724;2023-07-08T00:08:14;19.60;99.90
27540;DHT22;15906;52.046;4.724;2023-07-08T00:10:39;19.70;99.90
27540;DHT22;15906;52.046;4.724;2023-07-08T00:13:05;19.60;99.90
27540;DHT22;15906;52.046;4.724;2023-07-08T00:15:32;19.60;99.90
27540;DHT22;15906;52.046;4.724;2023-07-08T00:17:59;19.60;99.90
27540;DHT22;15906;52.046;4.724;2023-07-08T00:20:44;19.60;99.90
27540;DHT22;15906;52.046;4.724;2023-07-08T00:23:11;19.60;99.90
27540;DHT22;15906;52.046;4.724;2023-07-08T00:25:36;19.50;99.90
27540;DHT22;15906;52.046;4.724;2023-07-08T00:28:08;19.50;99.90
27540;DHT22;15906;52.046;4.724;2023-07-08T00:30:34;19.60;99.90
27540;DHT22;15906;52.046;4.724;2023-07-08T00:33:00;19.50;99.90
27540;DHT22;15906;52.046;4.724;2023-07-08T00:35:42;19.40;99.90
27540;DHT22;15906;52.046;4.724;2023-07-08T00:41:15;19.40;99.90
27540;DHT22;15906;52.046;4.724;2023-07-08T00:43:48;19.30;99.90
27540;DHT22;15906;52.046;4.724;2023-07-08T00:49:29;19.20;99.90
27540;DHT22;15906;52.046;4.724;2023-07-08T00:52:19;19.20;99.90
27540;DHT22;15906;52.046;4.724;2023-07-08T00:54:48;19.20;99.90
27540;DHT22;15906;52.046;4.724;2023-07-08T00:57:14;19.20;99.90
27540;DHT22;15906;52.046;4.724;2023-07-08T00:59:45;19.20;99.90
27540;DHT22;15906;52.046;4.724;2023-07-08T01:02:14;19.10;99.90
27540;DHT22;15906;52.046;4.724;2023-07-08T01:04:50;19.10;99.90
27540;DHT22;15906;52.046;4.724;2023-07-08T01:07:17;19.10;99.90
27540;DHT22;15906;52.046;4.724;2023-07-08T01:09:49;19.10;99.90
27540;DHT22;15906;52.046;4.724;2023-07-08T01:12:20;19.10;99.90
27540;DHT22;15906;52.046;4.724;2023-07-08T01:14:47;19.00;99.90
27540;DHT22;15906;52.046;4.724;2023-07-08T01:17:13;19.00;99.90
27540;DHT22;15906;52.046;4.724;2023-07-08T01:19:43;19.00;99.90
27540;DHT22;15906;52.046;4.724;2023-07-08T01:22:09;19.00;99.90
27540;DHT22;15906;52.046;4.724;2023-07-08T01:24:38;19.10;99.90
27540;DHT22;15906;52.046;4.724;2023-07-08T01:27:07;19.00;99.90
27540;DHT22;15906;52.046;4.724;2023-07-08T01:29:33;19.00;99.90
27540;DHT22;15906;52.046;4.724;2023-07-08T01:31:59;19.00;99.90
27540;DHT22;15906;52.046;4.724;2023-07-08T01:34:28;18.90;99.90
27540;DHT22;15906;52.046;4.724;2023-07-08T01:36:55;18.80;99.90
27540;DHT22;15906;52.046;4.724;2023-07-08T01:39:23;18.90;99.90
27540;DHT22;15906;52.046;4.724;2023-07-08T01:41:49;18.70;99.90
27540;DHT22;15906;52.046;4.724;2023-07-08T01:46:55;18.70;99.90
27540;DHT22;15906;52.046;4.724;2023-07-08T01:49:22;18.70;99.90
27540;DHT22;15906;52.046;4.724;2023-07-08T01:51:48;18.60;99.90
27540;DHT22;15906;52.046;4.724;2023-07-08T01:54:14;18.50;99.90
27540;DHT22;15906;52.046;4.724;2023-07-08T01:56:40;18.50;99.90
27540;DHT22;15906;52.046;4.724;2023-07-08T01:59:05;18.40;99.90
27540;DHT22;15906;52.046;4.724;2023-07-08T02:01:31;18.50;99.90
27540;DHT22;15906;52.046;4.724;2023-07-08T02:03:57;18.50;99.90
27540;DHT22;15906;52.046;4.724;2023-07-08T02:06:22;18.40;99.90
27540;DHT22;15906;52.046;4.724;2023-07-08T02:08:48;18.40;99.90
27540;DHT22;15906;52.046;4.724;2023-07-08T02:11:15;18.30;99.90
27540;DHT22;15906;52.046;4.724;2023-07-08T02:13:40;18.20;99.90
27540;DHT22;15906;52.046;4.724;2023-07-08T02:16:07;18.20;99.90
27540;DHT22;15906;52.046;4.724;2023-07-08T02:18:32;18.20;99.90
27540;DHT22;15906;52.046;4.724;2023-07-08T02:20:58;18.20;99.90
27540;DHT22;15906;52.046;4.724;2023-07-08T02:23:25;18.10;99.90
27540;DHT22;15906;52.046;4.724;2023-07-08T02:25:54;18.10;99.90
27540;DHT22;15906;52.046;4.724;2023-07-08T02:28:21;18.10;99.90
27540;DHT22;15906;52.046;4.724;2023-07-08T02:30:47;18.10;99.90
27540;DHT22;15906;52.046;4.724;2023-07-08T02:33:13;18.10;99.90
27540;DHT22;15906;52.046;4.724;2023-07-08T02:35:40;18.10;99.90
27540;DHT22;15906;52.046;4.724;2023-07-08T02:38:05;18.10;99.90
27540;DHT22;15906;52.046;4.724;2023-07-08T02:40:31;18.00;99.90
27540;DHT22;15906;52.046;4.724;2023-07-08T02:42:56;18.00;99.90
27540;DHT22;15906;52.046;4.724;2023-07-08T02:45:22;17.90;99.90
27540;DHT22;15906;52.046;4.724;2023-07-08T02:47:47;17.90;99.90
27540;DHT22;15906;52.046;4.724;2023-07-08T02:50:13;17.90;99.90
27540;DHT22;15906;52.046;4.724;2023-07-08T02:52:38;17.80;99.90
27540;DHT22;15906;52.046;4.724;2023-07-08T02:55:04;17.80;99.90
27540;DHT22;15906;52.046;4.724;2023-07-08T02:57:30;17.80;99.90
27540;DHT22;15906;52.046;4.724;2023-07-08T02:59:56;17.80;99.90
27540;DHT22;15906;52.046;4.724;2023-07-08T03:02:22;17.80;99.90
27540;DHT22;15906;52.046;4.724;2023-07-08T03:04:48;17.80;99.90
27540;DHT22;15906;52.046;4.724;2023-07-08T03:07:15;17.70;99.90
27540;DHT22;15906;52.046;4.724;2023-07-08T03:09:41;17.70;99.90
27540;DHT22;15906;52.046;4.724;2023-07-08T03:12:08;17.70;99.90
27540;DHT22;15906;52.046;4.724;2023-07-08T03:14:34;17.60;99.90
27540;DHT22;15906;52.046;4.724;2023-07-08T03:17:00;17.60;99.90
27540;DHT22;15906;52.046;4.724;2023-07-08T03:19:25;17.60;99.90
27540;DHT22;15906;52.046;4.724;2023-07-08T03:21:51;17.70;99.90
27540;DHT22;15906;52.046;4.724;2023-07-08T03:24:17;17.60;99.90
27540;DHT22;15906;52.046;4.724;2023-07-08T03:26:44;17.60;99.90
27540;DHT22;15906;52.046;4.724;2023-07-08T03:29:16;17.60;99.90
27540;DHT22;15906;52.046;4.724;2023-07-08T03:31:43;17.60;99.90
27540;DHT22;15906;52.046;4.724;2023-07-08T03:34:15;17.60;99.90
27540;DHT22;15906;52.046;4.724;2023-07-08T03:36:49;17.60;99.90
27540;DHT22;15906;52.046;4.724;2023-07-08T03:39:17;17.50;99.90
27540;DHT22;15906;52.046;4.724;2023-07-08T03:41:43;17.50;99.90
27540;DHT22;15906;52.046;4.724;2023-07-08T03:44:09;17.40;99.90
27540;DHT22;15906;52.046;4.724;2023-07-08T03:46:34;17.40;99.90
27540;DHT22;15906;52.046;4.724;2023-07-08T03:49:00;17.40;99.90
27540;DHT22;15906;52.046;4.724;2023-07-08T03:51:29;17.40;99.90
27540;DHT22;15906;52.046;4.724;2023-07-08T03:53:54;17.40;99.90
27540;DHT22;15906;52.046;4.724;2023-07-08T03:56:20;17.30;99.90
27540;DHT22;15906;52.046;4.724;2023-07-08T03:58:45;17.20;99.90
27540;DHT22;15906;52.046;4.724;2023-07-08T04:01:22;17.30;99.90
27540;DHT22;15906;52.046;4.724;2023-07-08T04:03:51;17.30;99.90
27540;DHT22;15906;52.046;4.724;2023-07-08T04:06:17;17.30;99.90
27540;DHT22;15906;52.046;4.724;2023-07-08T04:08:43;17.20;99.90
27540;DHT22;15906;52.046;4.724;2023-07-08T04:11:13;17.10;99.90
27540;DHT22;15906;52.046;4.724;2023-07-08T04:13:39;17.20;99.90
27540;DHT22;15906;52.046;4.724;2023-07-08T04:16:05;17.10;99.90
27540;DHT22;15906;52.046;4.724;2023-07-08T04:18:31;17.10;99.90
27540;DHT22;15906;52.046;4.724;2023-07-08T04:20:57;17.10;99.90
27540;DHT22;15906;52.046;4.724;2023-07-08T04:23:24;17.20;99.90
27540;DHT22;15906;52.046;4.724;2023-07-08T04:25:54;17.20;99.90
27540;DHT22;15906;52.046;4.724;2023-07-08T04:28:20;17.20;99.90
27540;DHT22;15906;52.046;4.724;2023-07-08T04:30:47;17.30;99.90
27540;DHT22;15906;52.046;4.724;2023-07-08T04:33:14;17.30;99.90
27540;DHT22;15906;52.046;4.724;2023-07-08T04:35:41;17.30;99.90
27540;DHT22;15906;52.046;4.724;2023-07-08T04:38:16;17.20;99.90
27540;DHT22;15906;52.046;4.724;2023-07-08T04:40:42;17.20;99.90
27540;DHT22;15906;52.046;4.724;2023-07-08T04:43:07;17.20;99.90
27540;DHT22;15906;52.046;4.724;2023-07-08T04:45:33;17.30;99.90
27540;DHT22;15906;52.046;4.724;2023-07-08T04:48:00;17.40;99.90
27540;DHT22;15906;52.046;4.724;2023-07-08T04:50:25;17.40;99.90
27540;DHT22;15906;52.046;4.724;2023-07-08T04:52:51;17.40;99.90
27540;DHT22;15906;52.046;4.724;2023-07-08T04:55:18;17.40;99.90
27540;DHT22;15906;52.046;4.724;2023-07-08T04:57:43;17.50;99.90
27540;DHT22;15906;52.046;4.724;2023-07-08T05:00:15;17.50;99.90
27540;DHT22;15906;52.046;4.724;2023-07-08T05:02:41;17.50;99.90
27540;DHT22;15906;52.046;4.724;2023-07-08T05:05:06;17.40;99.90
27540;DHT22;15906;52.046;4.724;2023-07-08T05:07:32;17.60;99.90
27540;DHT22;15906;52.046;4.724;2023-07-08T05:09:58;17.60;99.90
27540;DHT22;15906;52.046;4.724;2023-07-08T05:12:25;17.60;99.90
27540;DHT22;15906;52.046;4.724;2023-07-08T05:14:51;17.70;99.90
27540;DHT22;15906;52.046;4.724;2023-07-08T05:17:17;17.60;99.90
27540;DHT22;15906;52.046;4.724;2023-07-08T05:19:42;17.70;99.90
27540;DHT22;15906;52.046;4.724;2023-07-08T05:22:09;17.80;99.90
27540;DHT22;15906;52.046;4.724;2023-07-08T05:24:35;17.80;99.90
27540;DHT22;15906;52.046;4.724;2023-07-08T05:27:02;17.90;99.90
27540;DHT22;15906;52.046;4.724;2023-07-08T05:29:28;17.90;99.90
27540;DHT22;15906;52.046;4.724;2023-07-08T05:31:54;18.00;99.90
27540;DHT22;15906;52.046;4.724;2023-07-08T05:34:20;18.10;99.90
27540;DHT22;15906;52.046;4.724;2023-07-08T05:36:45;18.10;99.90
27540;DHT22;15906;52.046;4.724;2023-07-08T05:39:11;18.20;99.90
27540;DHT22;15906;52.046;4.724;2023-07-08T05:41:36;18.30;99.90
27540;DHT22;15906;52.046;4.724;2023-07-08T05:44:02;18.30;99.90
27540;DHT22;15906;52.046;4.724;2023-07-08T05:46:27;18.40;99.90
27540;DHT22;15906;52.046;4.724;2023-07-08T05:48:53;18.50;99.90
27540;DHT22;15906;52.046;4.724;2023-07-08T05:51:20;18.70;99.90
27540;DHT22;15906;52.046;4.724;2023-07-08T05:53:46;18.80;99.90
27540;DHT22;15906;52.046;4.724;2023-07-08T05:56:12;18.90;99.90
27540;DHT22;15906;52.046;4.724;2023-07-08T05:58:37;19.00;99.90
27540;DHT22;15906;52.046;4.724;2023-07-08T06:01:03;19.10;99.90
27540;DHT22;15906;52.046;4.724;2023-07-08T06:03:29;19.20;99.90
27540;DHT22;15906;52.046;4.724;2023-07-08T06:05:54;19.40;99.90
27540;DHT22;15906;52.046;4.724;2023-07-08T06:08:20;19.50;99.90
27540;DHT22;15906;52.046;4.724;2023-07-08T06:10:45;19.60;99.90
27540;DHT22;15906;52.046;4.724;2023-07-08T06:13:12;19.70;99.90
27540;DHT22;15906;52.046;4.724;2023-07-08T06:15:38;19.80;99.90
27540;DHT22;15906;52.046;4.724;2023-07-08T06:18:04;19.90;99.90
27540;DHT22;15906;52.046;4.724;2023-07-08T06:20:30;20.00;99.90
27540;DHT22;15906;52.046;4.724;2023-07-08T06:22:56;20.10;99.90
27540;DHT22;15906;52.046;4.724;2023-07-08T06:25:21;20.20;99.90
27540;DHT22;15906;52.046;4.724;2023-07-08T06:27:47;20.20;99.90
27540;DHT22;15906;52.046;4.724;2023-07-08T06:30:13;20.50;99.90
27540;DHT22;15906;52.046;4.724;2023-07-08T06:32:38;20.60;99.90
27540;DHT22;15906;52.046;4.724;2023-07-08T06:35:04;20.60;99.90
27540;DHT22;15906;52.046;4.724;2023-07-08T06:37:30;20.90;99.90
27540;DHT22;15906;52.046;4.724;2023-07-08T06:39:55;21.00;99.90
27540;DHT22;15906;52.046;4.724;2023-07-08T06:42:21;21.10;99.90
27540;DHT22;15906;52.046;4.724;2023-07-08T06:44:46;21.20;99.90
27540;DHT22;15906;52.046;4.724;2023-07-08T06:47:20;21.60;99.90
27540;DHT22;15906;52.046;4.724;2023-07-08T06:49:46;21.70;99.90
27540;DHT22;15906;52.046;4.724;2023-07-08T06:52:12;21.90;99.90
27540;DHT22;15906;52.046;4.724;2023-07-08T06:54:38;21.90;99.90
27540;DHT22;15906;52.046;4.724;2023-07-08T06:57:04;21.80;99.90
27540;DHT22;15906;52.046;4.724;2023-07-08T06:59:30;21.80;99.90
27540;DHT22;15906;52.046;4.724;2023-07-08T07:01:55;21.90;99.90
27540;DHT22;15906;52.046;4.724;2023-07-08T07:04:21;21.90;99.90
27540;DHT22;15906;52.046;4.724;2023-07-08T07:06:47;22.10;99.90
27540;DHT22;15906;52.046;4.724;2023-07-08T07:09:12;22.30;99.90
27540;DHT22;15906;52.046;4.724;2023-07-08T07:11:38;22.30;99.90
27540;DHT22;15906;52.046;4.724;2023-07-08T07:14:03;22.70;99.90
27540;DHT22;15906;52.046;4.724;2023-07-08T07:16:29;23.00;99.90
27540;DHT22;15906;52.046;4.724;2023-07-08T07:18:55;23.40;99.90
27540;DHT22;15906;52.046;4.724;2023-07-08T07:21:21;23.80;99.40
27540;DHT22;15906;52.046;4.724;2023-07-08T07:23:46;24.10;99.60
27540;DHT22;15906;52.046;4.724;2023-07-08T07:26:12;24.20;98.00
27540;DHT22;15906;52.046;4.724;2023-07-08T07:28:37;24.30;97.60
27540;DHT22;15906;52.046;4.724;2023-07-08T07:31:03;24.40;97.90
27540;DHT22;15906;52.046;4.724;2023-07-08T07:33:31;24.50;97.30
27540;DHT22;15906;52.046;4.724;2023-07-08T07:35:56;24.60;96.90
27540;DHT22;15906;52.046;4.724;2023-07-08T07:38:22;25.00;97.90
27540;DHT22;15906;52.046;4.724;2023-07-08T07:40:53;25.00;96.60
27540;DHT22;15906;52.046;4.724;2023-07-08T07:43:19;25.00;95.40
27540;DHT22;15906;52.046;4.724;2023-07-08T07:45:45;25.10;95.60
27540;DHT22;15906;52.046;4.724;2023-07-08T07:48:10;25.20;96.00
27540;DHT22;15906;52.046;4.724;2023-07-08T07:50:36;25.10;96.10
27540;DHT22;15906;52.046;4.724;2023-07-08T07:53:01;25.20;96.00
27540;DHT22;15906;52.046;4.724;2023-07-08T07:55:27;25.40;95.90
27540;DHT22;15906;52.046;4.724;2023-07-08T07:57:52;25.50;96.00
27540;DHT22;15906;52.046;4.724;2023-07-08T08:00:18;25.50;95.80
27540;DHT22;15906;52.046;4.724;2023-07-08T08:02:44;25.60;95.20
27540;DHT22;15906;52.046;4.724;2023-07-08T08:05:09;25.70;95.70
27540;DHT22;15906;52.046;4.724;2023-07-08T08:07:35;25.90;95.70
27540;DHT22;15906;52.046;4.724;2023-07-08T08:10:04;26.20;94.50
27540;DHT22;15906;52.046;4.724;2023-07-08T08:12:29;26.50;95.20
27540;DHT22;15906;52.046;4.724;2023-07-08T08:14:55;26.70;94.40
27540;DHT22;15906;52.046;4.724;2023-07-08T08:17:20;26.70;94.40
27540;DHT22;15906;52.046;4.724;2023-07-08T08:19:46;27.00;94.70
27540;DHT22;15906;52.046;4.724;2023-07-08T08:22:11;27.00;92.70
27540;DHT22;15906;52.046;4.724;2023-07-08T08:24:37;26.90;92.90
27540;DHT22;15906;52.046;4.724;2023-07-08T08:27:03;27.20;94.10
27540;DHT22;15906;52.046;4.724;2023-07-08T08:29:28;27.20;92.60
27540;DHT22;15906;52.046;4.724;2023-07-08T08:31:54;27.20;93.10
27540;DHT22;15906;52.046;4.724;2023-07-08T08:34:20;27.30;92.20
27540;DHT22;15906;52.046;4.724;2023-07-08T08:36:45;27.40;93.60
27540;DHT22;15906;52.046;4.724;2023-07-08T08:39:11;27.40;92.30
27540;DHT22;15906;52.046;4.724;2023-07-08T08:41:38;27.40;93.00
27540;DHT22;15906;52.046;4.724;2023-07-08T08:44:08;27.50;92.90
27540;DHT22;15906;52.046;4.724;2023-07-08T08:47:10;27.60;92.10
27540;DHT22;15906;52.046;4.724;2023-07-08T08:49:44;27.80;92.50
27540;DHT22;15906;52.046;4.724;2023-07-08T08:52:13;27.80;92.80
27540;DHT22;15906;52.046;4.724;2023-07-08T08:54:39;28.20;93.70
27540;DHT22;15906;52.046;4.724;2023-07-08T08:58:23;28.10;91.40
27540;DHT22;15906;52.046;4.724;2023-07-08T09:00:21;28.30;92.90
27540;DHT22;15906;52.046;4.724;2023-07-08T09:02:59;28.40;91.60
27540;DHT22;15906;52.046;4.724;2023-07-08T09:05:26;28.40;92.20
27540;DHT22;15906;52.046;4.724;2023-07-08T09:08:20;28.30;91.30
27540;DHT22;15906;52.046;4.724;2023-07-08T09:10:58;28.60;91.70
27540;DHT22;15906;52.046;4.724;2023-07-08T09:13:34;28.50;91.20
27540;DHT22;15906;52.046;4.724;2023-07-08T09:19:00;28.30;92.00
27540;DHT22;15906;52.046;4.724;2023-07-08T09:27:04;28.90;90.80
27540;DHT22;15906;52.046;4.724;2023-07-08T09:29:31;29.00;91.60
27540;DHT22;15906;52.046;4.724;2023-07-08T09:31:58;29.10;90.20
27540;DHT22;15906;52.046;4.724;2023-07-08T09:34:37;28.90;90.70
27540;DHT22;15906;52.046;4.724;2023-07-08T09:37:23;29.00;90.20
27540;DHT22;15906;52.046;4.724;2023-07-08T09:39:49;28.90;90.00
27540;DHT22;15906;52.046;4.724;2023-07-08T09:42:15;28.90;87.80
27540;DHT22;15906;52.046;4.724;2023-07-08T09:44:44;28.50;89.60
27540;DHT22;15906;52.046;4.724;2023-07-08T09:47:28;28.50;90.30
27540;DHT22;15906;52.046;4.724;2023-07-08T09:49:58;28.60;90.00
27540;DHT22;15906;52.046;4.724;2023-07-08T09:52:24;29.00;91.40
27540;DHT22;15906;52.046;4.724;2023-07-08T09:54:50;29.00;91.30
27540;DHT22;15906;52.046;4.724;2023-07-08T09:57:33;29.20;90.90
27540;DHT22;15906;52.046;4.724;2023-07-08T10:00:00;29.50;91.50
27540;DHT22;15906;52.046;4.724;2023-07-08T10:05:12;29.70;91.00
27540;DHT22;15906;52.046;4.724;2023-07-08T10:07:38;29.80;90.30
27540;DHT22;15906;52.046;4.724;2023-07-08T10:10:09;29.80;90.50
27540;DHT22;15906;52.046;4.724;2023-07-08T10:12:38;30.00;90.60
27540;DHT22;15906;52.046;4.724;2023-07-08T10:15:39;30.00;87.70
27540;DHT22;15906;52.046;4.724;2023-07-08T10:18:03;30.00;88.50
27540;DHT22;15906;52.046;4.724;2023-07-08T10:20:49;30.10;88.60
27540;DHT22;15906;52.046;4.724;2023-07-08T10:26:28;30.10;87.20
27540;DHT22;15906;52.046;4.724;2023-07-08T10:29:18;30.30;89.00
27540;DHT22;15906;52.046;4.724;2023-07-08T10:31:51;30.30;87.10
27540;DHT22;15906;52.046;4.724;2023-07-08T10:37:35;30.60;89.70
27540;DHT22;15906;52.046;4.724;2023-07-08T10:40:19;30.60;90.00
27540;DHT22;15906;52.046;4.724;2023-07-08T10:48:53;30.70;87.40
27540;DHT22;15906;52.046;4.724;2023-07-08T10:56:45;31.30;84.50
27540;DHT22;15906;52.046;4.724;2023-07-08T10:59:48;31.20;87.10
27540;DHT22;15906;52.046;4.724;2023-07-08T11:05:44;31.00;84.10
27540;DHT22;15906;52.046;4.724;2023-07-08T11:08:26;31.10;83.10
27540;DHT22;15906;52.046;4.724;2023-07-08T11:10:59;31.40;84.80
27540;DHT22;15906;52.046;4.724;2023-07-08T11:13:29;31.50;85.90
27540;DHT22;15906;52.046;4.724;2023-07-08T11:16:04;31.60;84.80
27540;DHT22;15906;52.046;4.724;2023-07-08T11:18:50;31.80;82.00
27540;DHT22;15906;52.046;4.724;2023-07-08T11:23:51;31.10;83.50
27540;DHT22;15906;52.046;4.724;2023-07-08T11:29:04;31.30;82.40
27540;DHT22;15906;52.046;4.724;2023-07-08T11:31:35;30.90;82.90
27540;DHT22;15906;52.046;4.724;2023-07-08T11:34:01;30.60;82.40
27540;DHT22;15906;52.046;4.724;2023-07-08T11:36:28;30.30;85.80
27540;DHT22;15906;52.046;4.724;2023-07-08T11:38:56;30.80;84.20
27540;DHT22;15906;52.046;4.724;2023-07-08T11:41:24;31.10;84.80
27540;DHT22;15906;52.046;4.724;2023-07-08T11:43:54;31.30;83.00
27540;DHT22;15906;52.046;4.724;2023-07-08T11:46:26;31.60;83.00
27540;DHT22;15906;52.046;4.724;2023-07-08T11:49:14;31.80;86.90
27540;DHT22;15906;52.046;4.724;2023-07-08T11:51:43;32.10;81.60
27540;DHT22;15906;52.046;4.724;2023-07-08T11:54:27;32.20;83.90
27540;DHT22;15906;52.046;4.724;2023-07-08T11:57:03;32.30;79.40
27540;DHT22;15906;52.046;4.724;2023-07-08T11:59:32;32.10;79.10
27540;DHT22;15906;52.046;4.724;2023-07-08T12:02:20;32.00;80.50
27540;DHT22;15906;52.046;4.724;2023-07-08T12:05:12;32.10;79.50
27540;DHT22;15906;52.046;4.724;2023-07-08T12:07:45;32.30;80.90
27540;DHT22;15906;52.046;4.724;2023-07-08T12:10:17;32.50;79.30
27540;DHT22;15906;52.046;4.724;2023-07-08T12:12:44;32.40;80.50
27540;DHT22;15906;52.046;4.724;2023-07-08T12:17:38;32.50;81.40
27540;DHT22;15906;52.046;4.724;2023-07-08T12:20:07;32.60;74.50
27540;DHT22;15906;52.046;4.724;2023-07-08T12:22:39;32.60;73.30
27540;DHT22;15906;52.046;4.724;2023-07-08T12:25:13;32.80;78.70
27540;DHT22;15906;52.046;4.724;2023-07-08T12:27:38;32.90;75.10
27540;DHT22;15906;52.046;4.724;2023-07-08T12:30:04;32.90;78.10
27540;DHT22;15906;52.046;4.724;2023-07-08T12:32:30;32.90;75.10
27540;DHT22;15906;52.046;4.724;2023-07-08T12:34:56;32.60;72.90
27540;DHT22;15906;52.046;4.724;2023-07-08T12:37:22;32.70;77.60
27540;DHT22;15906;52.046;4.724;2023-07-08T12:39:56;32.40;75.40
27540;DHT22;15906;52.046;4.724;2023-07-08T12:42:24;32.40;76.10
27540;DHT22;15906;52.046;4.724;2023-07-08T12:44:51;32.40;76.40
27540;DHT22;15906;52.046;4.724;2023-07-08T12:47:19;32.30;74.80
27540;DHT22;15906;52.046;4.724;2023-07-08T12:49:45;32.20;76.70
27540;DHT22;15906;52.046;4.724;2023-07-08T12:52:23;32.10;77.90
27540;DHT22;15906;52.046;4.724;2023-07-08T12:54:49;32.10;77.70
27540;DHT22;15906;52.046;4.724;2023-07-08T12:57:15;32.10;77.00
27540;DHT22;15906;52.046;4.724;2023-07-08T12:59:41;32.10;78.20
27540;DHT22;15906;52.046;4.724;2023-07-08T13:02:18;32.20;77.80
27540;DHT22;15906;52.046;4.724;2023-07-08T13:04:45;32.00;76.40
27540;DHT22;15906;52.046;4.724;2023-07-08T13:10:00;32.20;77.30
27540;DHT22;15906;52.046;4.724;2023-07-08T13:12:26;32.20;77.90
27540;DHT22;15906;52.046;4.724;2023-07-08T13:14:56;32.50;78.30
27540;DHT22;15906;52.046;4.724;2023-07-08T13:17:23;32.70;76.40
27540;DHT22;15906;52.046;4.724;2023-07-08T13:19:50;32.90;74.90
27540;DHT22;15906;52.046;4.724;2023-07-08T13:22:20;32.90;72.60
27540;DHT22;15906;52.046;4.724;2023-07-08T13:24:47;33.00;78.60
27540;DHT22;15906;52.046;4.724;2023-07-08T13:27:22;33.10;74.40
27540;DHT22;15906;52.046;4.724;2023-07-08T13:29:50;33.20;75.90
27540;DHT22;15906;52.046;4.724;2023-07-08T13:32:16;33.10;71.20
27540;DHT22;15906;52.046;4.724;2023-07-08T13:34:41;33.20;73.50
27540;DHT22;15906;52.046;4.724;2023-07-08T13:37:11;33.00;73.40
27540;DHT22;15906;52.046;4.724;2023-07-08T13:39:39;33.00;74.80
27540;DHT22;15906;52.046;4.724;2023-07-08T13:42:08;33.00;73.20
27540;DHT22;15906;52.046;4.724;2023-07-08T13:44:34;33.10;74.10
27540;DHT22;15906;52.046;4.724;2023-07-08T13:47:20;33.20;73.00
27540;DHT22;15906;52.046;4.724;2023-07-08T13:49:47;33.30;74.40
27540;DHT22;15906;52.046;4.724;2023-07-08T13:52:19;32.90;69.40
27540;DHT22;15906;52.046;4.724;2023-07-08T13:54:56;33.00;71.10
27540;DHT22;15906;52.046;4.724;2023-07-08T13:57:29;32.90;70.80
27540;DHT22;15906;52.046;4.724;2023-07-08T13:59:55;32.80;72.50
27540;DHT22;15906;52.046;4.724;2023-07-08T14:02:23;32.90;72.60
27540;DHT22;15906;52.046;4.724;2023-07-08T14:04:51;33.00;73.00
27540;DHT22;15906;52.046;4.724;2023-07-08T14:07:24;32.70;73.20
27540;DHT22;15906;52.046;4.724;2023-07-08T14:09:50;32.60;68.30
27540;DHT22;15906;52.046;4.724;2023-07-08T14:12:16;32.50;69.10
27540;DHT22;15906;52.046;4.724;2023-07-08T14:14:41;32.30;70.30
27540;DHT22;15906;52.046;4.724;2023-07-08T14:17:21;32.30;67.60
27540;DHT22;15906;52.046;4.724;2023-07-08T14:19:47;32.20;69.50
27540;DHT22;15906;52.046;4.724;2023-07-08T14:24:39;32.30;72.60
27540;DHT22;15906;52.046;4.724;2023-07-08T14:27:06;32.40;67.90
27540;DHT22;15906;52.046;4.724;2023-07-08T14:29:37;32.40;70.40
27540;DHT22;15906;52.046;4.724;2023-07-08T14:32:03;32.40;67.40
27540;DHT22;15906;52.046;4.724;2023-07-08T14:34:29;32.40;70.90
27540;DHT22;15906;52.046;4.724;2023-07-08T14:36:54;32.50;70.10
27540;DHT22;15906;52.046;4.724;2023-07-08T14:39:20;32.50;69.70
27540;DHT22;15906;52.046;4.724;2023-07-08T14:41:48;32.80;71.00
27540;DHT22;15906;52.046;4.724;2023-07-08T14:44:25;32.60;70.00
27540;DHT22;15906;52.046;4.724;2023-07-08T14:46:52;32.70;67.10
27540;DHT22;15906;52.046;4.724;2023-07-08T14:49:21;32.70;67.20
27540;DHT22;15906;52.046;4.724;2023-07-08T14:51:48;32.50;66.80
27540;DHT22;15906;52.046;4.724;2023-07-08T14:54:13;32.60;68.80
27540;DHT22;15906;52.046;4.724;2023-07-08T14:56:40;32.40;65.70
27540;DHT22;15906;52.046;4.724;2023-07-08T14:59:16;32.20;65.60
27540;DHT22;15906;52.046;4.724;2023-07-08T15:01:43;32.10;69.00
27540;DHT22;15906;52.046;4.724;2023-07-08T15:04:13;31.90;67.00
27540;DHT22;15906;52.046;4.724;2023-07-08T15:06:39;31.90;69.60
27540;DHT22;15906;52.046;4.724;2023-07-08T15:09:04;31.80;67.20
27540;DHT22;15906;52.046;4.724;2023-07-08T15:11:34;31.80;67.10
27540;DHT22;15906;52.046;4.724;2023-07-08T15:14:01;31.80;69.30
27540;DHT22;15906;52.046;4.724;2023-07-08T15:16:27;31.80;65.40
27540;DHT22;15906;52.046;4.724;2023-07-08T15:18:52;31.70;65.00
27540;DHT22;15906;52.046;4.724;2023-07-08T15:21:18;31.70;66.00
27540;DHT22;15906;52.046;4.724;2023-07-08T15:23:43;31.70;67.80
27540;DHT22;15906;52.046;4.724;2023-07-08T15:26:11;31.70;67.30
27540;DHT22;15906;52.046;4.724;2023-07-08T15:28:43;31.70;64.00
27540;DHT22;15906;52.046;4.724;2023-07-08T15:31:15;31.70;65.80
27540;DHT22;15906;52.046;4.724;2023-07-08T15:33:43;31.60;68.60
27540;DHT22;15906;52.046;4.724;2023-07-08T15:36:10;31.50;73.10
27540;DHT22;15906;52.046;4.724;2023-07-08T15:38:36;31.40;71.90
27540;DHT22;15906;52.046;4.724;2023-07-08T15:41:02;31.30;75.10
27540;DHT22;15906;52.046;4.724;2023-07-08T15:43:29;31.30;67.20
27540;DHT22;15906;52.046;4.724;2023-07-08T15:45:55;31.30;69.10
27540;DHT22;15906;52.046;4.724;2023-07-08T15:48:21;31.30;72.90
27540;DHT22;15906;52.046;4.724;2023-07-08T15:50:46;31.30;72.10
27540;DHT22;15906;52.046;4.724;2023-07-08T15:53:14;31.30;72.80
27540;DHT22;15906;52.046;4.724;2023-07-08T15:55:43;31.40;71.00
27540;DHT22;15906;52.046;4.724;2023-07-08T15:58:26;31.30;73.10
27540;DHT22;15906;52.046;4.724;2023-07-08T16:00:52;31.30;73.10
27540;DHT22;15906;52.046;4.724;2023-07-08T16:03:29;31.30;70.10
27540;DHT22;15906;52.046;4.724;2023-07-08T16:05:55;31.30;75.00
27540;DHT22;15906;52.046;4.724;2023-07-08T16:08:22;31.20;70.80
27540;DHT22;15906;52.046;4.724;2023-07-08T16:11:09;31.20;70.90
27540;DHT22;15906;52.046;4.724;2023-07-08T16:13:37;31.10;75.20
27540;DHT22;15906;52.046;4.724;2023-07-08T16:16:04;31.20;70.70
27540;DHT22;15906;52.046;4.724;2023-07-08T16:18:30;31.20;75.60
27540;DHT22;15906;52.046;4.724;2023-07-08T16:20:56;31.20;72.50
27540;DHT22;15906;52.046;4.724;2023-07-08T16:23:21;31.00;67.10
27540;DHT22;15906;52.046;4.724;2023-07-08T16:25:51;31.20;70.30
27540;DHT22;15906;52.046;4.724;2023-07-08T16:28:37;31.10;70.90
27540;DHT22;15906;52.046;4.724;2023-07-08T16:31:13;31.30;69.00
27540;DHT22;15906;52.046;4.724;2023-07-08T16:33:39;31.30;69.90